createdAt,value
2019-02-20T00:03:41.980Z,62307.08
2019-02-20T00:06:08.209Z,62345.41
2019-02-20T00:08:34.447Z,62348.25
2019-02-20T00:11:00.679Z,62382.80
2019-02-20T00:13:26.908Z,62370.61
2019-02-20T00:15:53.149Z,62374.62
2019-02-20T00:18:19.383Z,62392.58
2019-02-20T00:21:05.392Z,62377.65
2019-02-20T00:23:31.623Z,62380.71
2019-02-20T00:25:57.871Z,62387.28
2019-02-20T00:28:24.115Z,62415.34
2019-02-20T00:30:50.361Z,62404.36
2019-02-20T00:33:16.595Z,62406.52
2019-02-20T00:35:42.851Z,62407.89
2019-02-20T00:38:09.094Z,62412.70
2019-02-20T00:40:35.333Z,62372.86
2019-02-20T00:43:01.602Z,62409.38
2019-02-20T00:45:47.597Z,62395.77
2019-02-20T00:48:33.580Z,62401.24
2019-02-20T00:51:19.635Z,62383.35
2019-02-20T00:56:33.482Z,62303.22
2019-02-20T00:58:59.713Z,62302.61
2019-02-20T01:01:25.954Z,62278.02
2019-02-20T01:03:52.216Z,62265.64
2019-02-20T01:06:18.459Z,62246.36
2019-02-20T01:08:44.690Z,62224.45
2019-02-20T01:11:10.934Z,62225.70
2019-02-20T01:13:37.174Z,62207.87
2019-02-20T01:16:03.582Z,62194.07
2019-02-20T01:18:29.853Z,62191.91
2019-02-20T01:20:56.098Z,62190.89
2019-02-20T01:23:22.348Z,62195.95
2019-02-20T01:25:48.592Z,62177.43
2019-02-20T01:28:14.819Z,62163.24
2019-02-20T01:30:41.061Z,62159.32
2019-02-20T01:33:07.292Z,62165.12
2019-02-20T01:35:33.517Z,62140.10
2019-02-20T01:37:59.772Z,62117.47
2019-02-20T01:40:25.989Z,62112.27
2019-02-20T01:42:52.232Z,62106.18
2019-02-20T01:45:18.490Z,62090.24
2019-02-20T01:47:44.726Z,62086.32
2019-02-20T01:50:10.972Z,62076.19
2019-02-20T01:52:37.215Z,62067.75
2019-02-20T01:58:00.231Z,62046.87
2019-02-20T02:00:26.464Z,62045.64
2019-02-20T02:02:52.711Z,62030.66
2019-02-20T02:05:18.966Z,62017.79
2019-02-20T02:07:45.200Z,61999.14
2019-02-20T02:10:11.438Z,61910.09
2019-02-20T02:12:37.689Z,61984.91
2019-02-20T02:18:17.654Z,61970.45
2019-02-20T02:21:25.216Z,61964.29
2019-02-20T02:23:51.503Z,61942.28
2019-02-20T02:26:17.719Z,61940.79
2019-02-20T02:28:43.965Z,61938.73
2019-02-20T02:31:10.217Z,61916.59
2019-02-20T02:33:36.465Z,61912.81
2019-02-20T02:36:02.721Z,61904.90
2019-02-20T02:38:28.959Z,61891.23
2019-02-20T02:40:55.179Z,61884.61
2019-02-20T02:43:21.426Z,61893.41
2019-02-20T02:45:47.651Z,61869.52
2019-02-20T02:48:13.888Z,61863.98
2019-02-20T02:50:40.128Z,61862.76
2019-02-20T02:53:06.372Z,61843.46
2019-02-20T02:55:32.610Z,61846.62
2019-02-20T02:57:58.851Z,61837.98
2019-02-20T03:00:25.075Z,61829.24
2019-02-20T03:02:51.318Z,61844.37
2019-02-20T03:05:17.568Z,61831.33
2019-02-20T03:07:43.817Z,61817.73
2019-02-20T03:10:10.050Z,61831.98
2019-02-20T03:12:36.293Z,61815.63
2019-02-20T03:15:43.848Z,61820.66
2019-02-20T03:18:10.095Z,61812.73
2019-02-20T03:20:36.341Z,61807.82
2019-02-20T03:23:02.596Z,61812.02
2019-02-20T03:25:28.841Z,61806.00
2019-02-20T03:27:55.084Z,61798.59
2019-02-20T03:30:21.336Z,61788.84
2019-02-20T03:32:47.620Z,61782.57
2019-02-20T03:35:13.873Z,61785.50
2019-02-20T03:37:40.071Z,61772.67
2019-02-20T03:40:47.644Z,61757.25
2019-02-20T03:43:13.892Z,61750.06
2019-02-20T03:45:40.140Z,61669.85
2019-02-20T03:48:06.378Z,61760.86
2019-02-20T03:50:32.634Z,61737.48
2019-02-20T03:52:58.895Z,61738.75
2019-02-20T03:56:06.443Z,61734.98
2019-02-20T03:58:33.341Z,61726.36
2019-02-20T04:03:35.325Z,61721.23
2019-02-20T04:06:01.593Z,61711.54
2019-02-20T04:08:27.831Z,61709.78
2019-02-20T04:10:54.085Z,61703.22
2019-02-20T04:13:20.340Z,61711.14
2019-02-20T04:15:46.599Z,61703.41
2019-02-20T04:18:12.822Z,61707.96
2019-02-20T04:20:39.078Z,61692.27
2019-02-20T04:23:05.296Z,61688.14
2019-02-20T04:25:31.548Z,61706.36
2019-02-20T04:27:57.783Z,61689.77
2019-02-20T04:30:24.028Z,61688.93
2019-02-20T04:32:50.255Z,61688.01
2019-02-20T04:35:16.505Z,61679.14
2019-02-20T04:37:42.739Z,61683.64
2019-02-20T04:40:08.989Z,61681.88
2019-02-20T04:42:35.219Z,61693.55
2019-02-20T04:45:01.480Z,61682.96
2019-02-20T04:47:27.724Z,61683.32
2019-02-20T04:49:53.990Z,61697.85
2019-02-20T04:52:20.318Z,61564.20
2019-02-20T04:54:46.593Z,61672.75
2019-02-20T04:57:12.836Z,61682.14
2019-02-20T04:59:39.075Z,61683.33
2019-02-20T05:02:05.336Z,61677.64
2019-02-20T05:04:31.581Z,61667.16
2019-02-20T05:06:57.971Z,61497.00
2019-02-20T05:09:24.253Z,61679.01
2019-02-20T05:11:50.540Z,61672.80
2019-02-20T05:14:16.816Z,61676.32
2019-02-20T05:16:43.121Z,61670.53
2019-02-20T05:19:09.390Z,61674.89
2019-02-20T05:21:35.679Z,61680.87
2019-02-20T05:24:01.963Z,61668.98
2019-02-20T05:26:28.276Z,61671.12
2019-02-20T05:28:54.565Z,61677.49
2019-02-20T05:31:20.863Z,61676.56
2019-02-20T05:33:47.146Z,61668.98
2019-02-20T05:36:13.440Z,61673.67
2019-02-20T05:38:39.716Z,61676.51
2019-02-20T05:41:06.016Z,61679.20
2019-02-20T05:43:32.289Z,61680.33
2019-02-20T05:45:58.559Z,61663.20
2019-02-20T05:48:24.866Z,61673.72
2019-02-20T05:50:51.149Z,61680.52
2019-02-20T05:53:17.476Z,61677.38
2019-02-20T05:55:43.786Z,61660.52
2019-02-20T05:58:10.093Z,61677.94
2019-02-20T06:00:36.371Z,61674.35
2019-02-20T06:03:04.795Z,61675.10
2019-02-20T06:05:30.882Z,61694.62
2019-02-20T06:07:57.184Z,61682.43
2019-02-20T06:10:23.461Z,61686.79
2019-02-20T06:12:49.780Z,61683.33
2019-02-20T06:15:16.063Z,61673.63
2019-02-20T06:17:42.489Z,61647.95
2019-02-20T06:20:50.076Z,61643.36
2019-02-20T06:23:16.389Z,61652.98
2019-02-20T06:25:42.728Z,61645.50
2019-02-20T06:28:09.076Z,61639.38
2019-02-20T06:30:35.368Z,61637.24
2019-02-20T06:33:01.683Z,61648.45
2019-02-20T06:35:27.912Z,61656.66
2019-02-20T06:37:54.164Z,61642.09
2019-02-20T06:40:20.412Z,61640.27
2019-02-20T06:42:46.685Z,61636.51
2019-02-20T06:45:12.912Z,61632.93
2019-02-20T06:47:39.173Z,61632.60
2019-02-20T06:53:18.999Z,61632.11
2019-02-20T06:55:45.230Z,61635.34
2019-02-20T06:58:11.498Z,61633.28
2019-02-20T07:00:37.729Z,61621.98
2019-02-20T07:03:03.980Z,61619.63
2019-02-20T07:12:24.068Z,61646.20
2019-02-20T07:15:31.655Z,61638.75
2019-02-20T07:18:37.403Z,61630.60
2019-02-20T07:21:43.155Z,61625.75
2019-02-20T07:30:23.654Z,61644.14
2019-02-20T07:32:49.897Z,61654.82
2019-02-20T07:35:16.141Z,61644.37
2019-02-20T07:37:42.449Z,61653.72
2019-02-20T07:40:08.671Z,61654.12
2019-02-20T07:42:34.909Z,61660.36
2019-02-20T07:45:01.157Z,61656.07
2019-02-20T07:47:27.406Z,61670.30
2019-02-20T07:49:53.640Z,61677.84
2019-02-20T07:52:19.884Z,61675.78
2019-02-20T07:54:46.149Z,61678.66
2019-02-20T07:57:12.392Z,61681.69
2019-02-20T07:59:38.643Z,61695.70
2019-02-20T08:02:04.883Z,61689.82
2019-02-20T08:04:31.143Z,61693.54
2019-02-20T08:06:57.369Z,61689.77
2019-02-20T08:09:23.614Z,61700.01
2019-02-20T08:11:49.835Z,61696.68
2019-02-20T08:14:16.084Z,61696.68
2019-02-20T08:16:51.763Z,61693.87
2019-02-20T08:19:10.478Z,61695.79
2019-02-20T08:21:36.722Z,61701.81
2019-02-20T08:24:02.976Z,61704.30
2019-02-20T08:26:29.216Z,61709.34
2019-02-20T08:28:55.475Z,61713.17
2019-02-20T08:31:21.718Z,61731.77
2019-02-20T08:33:47.959Z,61732.31
2019-02-20T08:36:14.200Z,61716.48
2019-02-20T08:38:40.442Z,61732.21
2019-02-20T08:41:06.682Z,61735.09
2019-02-20T08:43:32.949Z,61735.57
2019-02-20T08:45:59.170Z,61730.81
2019-02-20T08:48:26.537Z,61744.04
2019-02-20T08:50:53.590Z,61737.67
2019-02-20T08:53:19.805Z,61746.48
2019-02-20T08:55:46.077Z,61747.16
2019-02-20T08:58:12.312Z,61756.77
2019-02-20T09:00:38.565Z,61748.79
2019-02-20T09:03:04.804Z,61751.28
2019-02-20T09:05:31.087Z,61757.93
2019-02-20T09:07:57.319Z,61768.90
2019-02-20T09:10:23.604Z,61771.93
2019-02-20T09:12:49.809Z,61771.39
2019-02-20T09:15:16.060Z,61779.34
2019-02-20T09:17:42.279Z,61795.87
2019-02-20T09:20:49.833Z,61794.27
2019-02-20T09:23:16.076Z,61797.50
2019-02-20T09:25:42.329Z,61807.71
2019-02-20T09:28:08.569Z,61811.48
2019-02-20T09:30:34.820Z,61800.89
2019-02-20T09:33:01.073Z,61811.72
2019-02-20T09:35:27.303Z,61810.39
2019-02-20T09:37:53.534Z,61813.41
2019-02-20T09:40:19.807Z,61823.78
2019-02-20T09:43:05.786Z,61832.50
2019-02-20T09:45:41.427Z,61822.97
2019-02-20T09:48:00.181Z,61824.95
2019-02-20T09:50:26.434Z,61838.34
2019-02-20T09:52:53.022Z,61842.04
2019-02-20T09:55:19.341Z,61851.80
2019-02-20T09:57:45.543Z,61865.91
2019-02-20T10:00:31.531Z,61853.82
2019-02-20T10:02:57.769Z,61865.80
2019-02-20T10:05:24.034Z,61877.13
2019-02-20T10:07:50.283Z,61876.48
2019-02-20T10:10:16.514Z,61852.87
2019-02-20T10:12:42.769Z,61894.39
2019-02-20T10:18:09.428Z,61901.34
2019-02-20T10:20:35.686Z,61910.91
2019-02-20T10:23:01.907Z,61912.46
2019-02-20T10:25:28.159Z,61911.59
2019-02-20T10:27:54.396Z,61916.59
2019-02-20T10:30:20.640Z,61921.70
2019-02-20T10:32:46.900Z,61928.55
2019-02-20T10:35:13.119Z,61928.91
2019-02-20T10:37:39.370Z,61935.51
2019-02-20T10:40:27.153Z,61861.70
2019-02-20T10:42:53.402Z,61945.30
2019-02-20T10:45:19.627Z,61945.92
2019-02-20T10:47:45.885Z,61969.78
2019-02-20T10:53:25.431Z,61962.10
2019-02-20T10:55:51.677Z,61984.08
2019-02-20T10:58:17.917Z,61977.03
2019-02-20T11:00:44.166Z,61994.34
2019-02-20T11:03:10.529Z,61996.12
2019-02-20T11:05:36.789Z,61995.71
2019-02-20T11:08:03.050Z,62009.33
2019-02-20T11:10:29.269Z,62000.04
2019-02-20T11:12:55.507Z,62004.21
2019-02-20T11:15:21.733Z,62021.33
2019-02-20T11:17:47.967Z,62010.61
2019-02-20T11:20:14.209Z,62011.38
2019-02-20T11:22:40.442Z,62025.27
2019-02-20T11:28:26.841Z,61939.04
2019-02-20T11:30:48.527Z,62026.82
2019-02-20T11:33:14.827Z,62027.81
2019-02-20T11:38:28.635Z,62021.02
2019-02-20T11:40:54.883Z,62031.41
2019-02-20T11:43:21.413Z,62035.26
2019-02-20T11:45:49.257Z,62025.27
2019-02-20T11:48:15.502Z,62032.14
2019-02-20T11:50:41.725Z,62008.53
2019-02-20T11:53:07.976Z,62008.73
2019-02-20T11:55:34.201Z,62021.21
2019-02-20T11:58:01.085Z,62021.33
2019-02-20T12:00:28.600Z,61997.13
2019-02-20T12:02:54.844Z,62003.72
2019-02-20T12:05:21.095Z,61994.84
2019-02-20T12:07:47.333Z,62002.98
2019-02-20T12:10:54.999Z,62021.33
2019-02-20T12:13:21.269Z,62013.77
2019-02-20T12:15:47.493Z,62013.77
2019-02-20T12:18:17.387Z,62015.94
2019-02-20T12:20:41.986Z,62003.94
2019-02-20T12:23:08.234Z,62005.66
2019-02-20T12:25:34.490Z,61989.57
2019-02-20T12:28:00.732Z,62003.39
2019-02-20T12:30:26.993Z,62003.82
2019-02-20T12:32:53.229Z,62010.68
2019-02-20T12:37:53.298Z,61996.64
2019-02-20T12:40:19.546Z,62010.53
2019-02-20T12:42:45.771Z,62000.54
2019-02-20T12:45:12.032Z,62007.29
2019-02-20T12:47:38.257Z,61988.15
2019-02-20T12:50:45.818Z,61984.57
2019-02-20T12:53:12.070Z,61983.70
2019-02-20T12:55:38.325Z,61976.73
2019-02-20T12:58:04.555Z,61956.85
2019-02-20T13:00:30.820Z,61962.45
2019-02-20T13:02:57.075Z,61977.59
2019-02-20T13:05:23.337Z,61976.41
2019-02-20T13:10:37.181Z,61968.57
2019-02-20T13:13:03.407Z,61972.00
2019-02-20T13:15:29.669Z,61971.73
2019-02-20T13:17:55.929Z,61963.98
2019-02-20T13:20:22.154Z,61959.05
2019-02-20T13:22:48.379Z,61953.48
2019-02-20T13:25:14.619Z,61967.22
2019-02-20T13:27:40.851Z,61954.54
2019-02-20T13:30:48.399Z,61944.35
2019-02-20T13:33:14.643Z,61931.35
2019-02-20T13:35:40.891Z,61925.01
2019-02-20T13:38:07.132Z,61944.41
2019-02-20T13:40:33.375Z,61942.47
2019-02-20T13:42:59.616Z,61952.39
2019-02-20T13:45:25.869Z,61950.30
2019-02-20T13:47:52.120Z,61945.92
2019-02-20T13:50:20.286Z,61948.32
2019-02-20T13:52:52.329Z,61951.15
2019-02-20T13:55:14.679Z,61947.45
2019-02-20T13:57:40.921Z,61941.52
2019-02-20T14:03:04.000Z,61926.70
2019-02-20T14:05:30.257Z,61917.32
2019-02-20T14:07:56.494Z,61916.78
2019-02-20T14:10:22.732Z,61906.39
2019-02-20T14:12:48.982Z,61894.93
2019-02-20T14:15:15.207Z,61902.75
2019-02-20T14:17:41.466Z,61900.20
2019-02-20T14:23:08.194Z,61900.93
2019-02-20T14:25:36.318Z,61898.49
2019-02-20T14:28:02.598Z,61895.04
2019-02-20T14:30:28.826Z,61872.70
2019-02-20T14:32:55.075Z,61877.65
2019-02-20T14:35:23.218Z,61874.71
2019-02-20T14:37:49.480Z,61880.50
2019-02-20T14:40:15.769Z,61883.38
2019-02-20T14:42:42.066Z,61870.20
2019-02-20T14:45:28.053Z,61869.12
2019-02-20T14:47:54.302Z,61871.07
2019-02-20T14:50:20.639Z,61872.38
2019-02-20T14:52:46.908Z,61845.21
2019-02-20T14:55:13.143Z,61847.49
2019-02-20T14:57:39.419Z,61835.92
2019-02-20T15:00:25.395Z,61826.01
2019-02-20T15:02:51.645Z,61840.34
2019-02-20T15:05:19.791Z,61837.90
2019-02-20T15:07:46.039Z,61830.89
2019-02-20T15:10:12.385Z,61810.04
2019-02-20T15:12:38.634Z,61817.43
2019-02-20T15:15:47.441Z,61802.50
2019-02-20T15:18:14.324Z,61798.53
2019-02-20T15:20:40.569Z,61813.90
2019-02-20T15:23:06.819Z,61782.90
2019-02-20T15:25:33.062Z,61770.04
2019-02-20T15:27:59.299Z,61772.58
2019-02-20T15:30:25.524Z,61765.78
2019-02-20T15:32:53.691Z,61756.17
2019-02-20T15:35:19.935Z,61754.62
2019-02-20T15:37:46.202Z,61745.21
2019-02-20T15:40:12.454Z,61743.06
2019-02-20T15:42:38.707Z,61736.99
2019-02-20T15:45:46.252Z,61728.77
2019-02-20T15:48:12.548Z,61721.86
2019-02-20T15:50:38.799Z,61725.86
2019-02-20T15:53:06.898Z,61700.97
2019-02-20T15:55:33.192Z,61696.33
2019-02-20T15:57:59.463Z,61683.75
2019-02-20T16:03:13.318Z,61678.48
2019-02-20T16:05:39.566Z,61669.86
2019-02-20T16:08:07.254Z,61656.12
2019-02-20T16:10:34.832Z,61644.23
2019-02-20T16:13:02.260Z,61650.89
2019-02-20T16:15:28.523Z,61643.74
2019-02-20T16:17:56.686Z,61633.82
2019-02-20T16:20:22.932Z,61639.64
2019-02-20T16:22:49.263Z,61629.71
2019-02-20T16:25:15.617Z,61623.26
2019-02-20T16:27:47.263Z,61622.86
2019-02-20T16:30:51.311Z,61623.61
2019-02-20T16:33:17.566Z,61614.42
2019-02-20T16:35:43.815Z,61604.82
2019-02-20T16:38:10.055Z,61588.04
2019-02-20T16:40:36.309Z,61586.92
2019-02-20T16:43:03.862Z,61583.70
2019-02-20T16:45:30.700Z,61567.18
2019-02-20T16:47:56.936Z,61556.95
2019-02-20T16:50:23.187Z,61547.97
2019-02-20T16:52:49.430Z,61538.70
2019-02-20T16:55:57.006Z,61532.10
2019-02-20T16:58:23.245Z,61519.70
2019-02-20T17:03:23.312Z,61511.64
2019-02-20T17:05:49.668Z,61505.79
2019-02-20T17:11:15.527Z,61489.13
2019-02-20T17:13:41.784Z,61475.03
2019-02-20T17:16:08.047Z,61463.11
2019-02-20T17:18:34.296Z,61461.21
2019-02-20T17:21:00.548Z,61451.91
2019-02-20T17:23:26.780Z,61445.26
2019-02-20T17:25:53.228Z,61440.82
2019-02-20T17:28:19.459Z,61431.12
2019-02-20T17:30:45.708Z,61425.55
2019-02-20T17:33:11.944Z,61430.91
2019-02-20T17:35:38.205Z,61442.23
2019-02-20T17:40:52.078Z,61427.22
2019-02-20T17:43:18.305Z,61417.17
2019-02-20T17:45:44.556Z,61412.73
2019-02-20T17:48:10.799Z,61410.04
2019-02-20T17:50:37.043Z,61399.30
2019-02-20T17:53:03.275Z,61387.92
2019-02-20T17:55:29.541Z,61374.09
2019-02-20T17:57:55.794Z,61372.52
2019-02-20T18:00:43.720Z,61358.18
2019-02-20T18:03:09.976Z,61356.13
2019-02-20T18:05:36.210Z,61351.84
2019-02-20T18:08:02.471Z,61341.42
2019-02-20T18:10:28.709Z,61327.49
2019-02-20T18:12:54.954Z,61323.78
2019-02-20T18:15:21.190Z,61315.90
2019-02-20T18:17:47.436Z,61306.92
2019-02-20T18:20:13.671Z,61298.36
2019-02-20T18:22:39.922Z,61300.58
2019-02-20T18:28:24.561Z,61284.76
2019-02-20T18:30:47.753Z,61282.18
2019-02-20T18:33:14.017Z,61270.40
2019-02-20T18:35:40.258Z,61248.35
2019-02-20T18:38:06.514Z,61243.43
2019-02-20T18:40:34.660Z,61230.68
2019-02-20T18:43:00.887Z,61231.87
2019-02-20T18:45:27.218Z,61219.10
2019-02-20T18:47:53.483Z,61215.56
2019-02-20T18:50:19.716Z,61205.00
2019-02-20T18:52:45.968Z,61188.02
2019-02-20T18:55:53.505Z,61181.46
2019-02-20T18:58:19.764Z,61175.27
2019-02-20T19:00:46.093Z,61154.18
2019-02-20T19:03:12.361Z,61146.42
2019-02-20T19:05:38.611Z,61130.13
2019-02-20T19:08:46.148Z,61124.45
2019-02-20T19:18:07.143Z,61085.87
2019-02-20T19:21:14.670Z,61086.26
2019-02-20T19:24:20.434Z,61077.62
2019-02-20T19:27:28.017Z,61067.24
2019-02-20T19:33:34.688Z,61042.12
2019-02-20T19:39:41.037Z,61016.14
2019-02-20T19:42:48.586Z,61009.88
2019-02-20T19:49:00.663Z,60989.62
2019-02-20T19:58:20.375Z,60955.96
2019-02-20T20:07:28.045Z,60939.09
2019-02-20T20:13:30.130Z,60928.41
2019-02-20T20:22:37.380Z,60901.40
2019-02-20T20:25:44.953Z,60904.08
2019-02-20T20:34:52.131Z,60879.66
2019-02-20T20:40:51.235Z,60864.04
2019-02-20T20:47:10.632Z,60859.55
2019-02-20T20:50:16.396Z,60802.11
2019-02-20T20:53:22.125Z,60831.18
2019-02-20T20:56:27.877Z,60833.87
2019-02-20T20:59:33.608Z,60815.96
2019-02-20T21:05:56.365Z,60802.50
2019-02-20T21:09:04.023Z,60787.86
2019-02-20T21:12:10.444Z,60784.70
2019-02-20T21:15:16.235Z,60785.07
2019-02-20T21:18:23.793Z,60778.68
2019-02-20T21:27:26.301Z,60769.78
2019-02-20T21:36:33.698Z,60747.72
2019-02-20T21:39:39.438Z,60750.99
2019-02-20T21:48:47.388Z,60727.04
2019-02-20T21:51:53.139Z,60722.35
2019-02-20T22:16:03.844Z,60720.98
2019-02-20T22:21:59.716Z,60715.97
2019-02-20T22:31:07.521Z,60707.37
2019-02-20T22:34:15.074Z,60698.46
2019-02-20T22:37:20.652Z,60683.69
2019-02-20T22:40:26.436Z,60675.74
2019-02-20T22:43:33.956Z,60670.80
2019-02-20T22:49:53.638Z,60668.14
2019-02-20T22:52:59.387Z,60666.24
2019-02-20T22:59:06.394Z,60641.36
2019-02-20T23:02:13.941Z,60651.16
2019-02-20T23:16:59.788Z,60632.39
2019-02-20T23:19:26.015Z,60614.43
2019-02-20T23:21:52.250Z,60606.49
2019-02-20T23:24:18.503Z,60599.23
2019-02-20T23:26:44.753Z,60590.53
2019-02-20T23:29:10.986Z,60588.06
2019-02-20T23:31:37.215Z,60581.29
2019-02-20T23:34:03.469Z,60586.66
2019-02-20T23:36:29.707Z,60574.21
2019-02-20T23:38:55.948Z,60561.15
2019-02-20T23:41:22.179Z,60550.01
2019-02-20T23:43:48.423Z,60543.11
2019-02-20T23:46:14.653Z,60535.43
2019-02-20T23:48:40.905Z,60527.70
2019-02-20T23:51:07.139Z,60528.59
2019-02-20T23:53:33.376Z,60517.19
2019-02-20T23:55:59.625Z,60514.09
2019-02-20T23:58:25.875Z,60510.73
